Time;durP1;ratioP1;P1;durP2;ratioP2;P2;SDS_P1;SDS_P2;PMS_P1;PMS_P2;Temp;Humidity;BMP_temperature;BMP_pressure;BME280_temperature;BME280_humidity;BME280_pressure;Samples;Min_cycle;Max_cycle;Signal;HPM_P1;HPM_P2
2022/10/02 00:01:50;;;;;;;6.90;3.80;;;19.80;64.50;;;;;;5057660;28;20035;-87
2022/10/02 00:04:23;;;;;;;5.32;3.92;;;19.80;64.90;;;;;;5057640;28;20025;-90
2022/10/02 00:06:50;;;;;;;5.35;3.72;;;20.00;64.30;;;;;;5056981;28;20082;-80
2022/10/02 00:09:30;;;;;;;4.93;3.60;;;19.90;64.10;;;;;;5075566;28;20027;-84
2022/10/02 00:12:07;;;;;;;;;;;19.90;63.90;;;;;;5057184;28;20025;-87
2022/10/02 00:14:37;;;;;;;4.20;3.20;;;19.70;64.40;;;;;;5057680;28;20417;-86
2022/10/02 00:17:04;;;;;;;4.93;3.60;;;19.60;64.50;;;;;;5057377;28;20024;-88
2022/10/02 00:19:29;;;;;;;5.03;3.40;;;19.80;64.70;;;;;;5057152;28;20044;-85
2022/10/02 00:22:30;;;;;;;4.97;3.30;;;19.60;65.20;;;;;;5056647;28;20059;-84
2022/10/02 00:25:09;;;;;;;4.82;3.33;;;19.50;65.50;;;;;;5073648;28;20024;-88
2022/10/02 00:27:39;;;;;;;4.45;2.95;;;19.40;65.20;;;;;;5057243;28;20059;-81
2022/10/02 00:30:11;;;;;;;5.78;3.22;;;19.50;65.00;;;;;;5057418;28;20115;-92
2022/10/02 00:32:50;;;;;;;5.50;3.00;;;19.40;65.30;;;;;;5073721;28;20030;-94
2022/10/02 00:35:28;;;;;;;4.80;3.00;;;19.40;65.40;;;;;;5053500;28;20055;-89
2022/10/02 00:38:33;;;;;;;5.40;3.00;;;19.60;64.50;;;;;;5053751;28;20239;-89
2022/10/02 00:41:19;;;;;;;4.53;3.00;;;19.60;64.90;;;;;;4974175;28;20027;-93
2022/10/02 00:44:18;;;;;;;4.20;2.80;;;19.90;64.10;;;;;;4985047;28;20034;-88
2022/10/02 00:46:43;;;;;;;5.15;3.00;;;19.90;63.70;;;;;;4993661;28;20640;-86
2022/10/02 00:49:31;;;;;;;4.30;2.83;;;19.60;64.60;;;;;;4993100;28;20038;-90
2022/10/02 00:52:08;;;;;;;4.60;2.70;;;19.50;64.90;;;;;;4993805;28;20060;-83
2022/10/02 00:55:02;;;;;;;3.83;2.72;;;19.20;65.40;;;;;;4992541;28;20026;-84
2022/10/02 00:57:47;;;;;;;4.65;3.00;;;19.20;65.30;;;;;;4976557;28;20062;-89
2022/10/02 01:00:16;;;;;;;5.00;2.65;;;19.10;66.50;;;;;;4975208;28;20084;-89
2022/10/02 01:02:53;;;;;;;5.10;2.60;;;19.20;66.10;;;;;;4993237;28;20097;-89
2022/10/02 01:05:20;;;;;;;3.97;2.63;;;19.20;65.90;;;;;;4993251;28;20425;-89
2022/10/02 01:07:49;;;;;;;4.53;2.30;;;19.30;66.00;;;;;;4992143;28;20393;-93
2022/10/02 01:10:15;;;;;;;6.00;2.75;;;19.20;65.90;;;;;;4976380;28;20042;-84
2022/10/02 01:12:41;;;;;;;3.95;2.50;;;19.30;65.70;;;;;;4976626;28;20564;-82
2022/10/02 01:15:15;;;;;;;5.45;2.90;;;19.60;65.50;;;;;;4976680;28;20026;-81
2022/10/02 01:17:42;;;;;;;4.18;2.60;;;19.40;64.60;;;;;;5056835;28;20024;-83
2022/10/02 01:20:18;;;;;;;3.70;2.63;;;19.30;65.10;;;;;;5056440;28;20032;-85
2022/10/02 01:23:04;;;;;;;6.43;3.05;;;19.50;65.00;;;;;;5055297;28;20051;-83
2022/10/02 01:25:30;;;;;;;6.18;2.58;;;19.70;64.60;;;;;;5056533;28;20028;-81
2022/10/02 01:27:56;;;;;;;3.88;2.65;;;19.90;64.00;;;;;;5072960;28;20052;-93
2022/10/02 01:30:23;;;;;;;5.97;2.50;;;20.00;63.90;;;;;;5055966;28;20027;-85
2022/10/02 01:32:56;;;;;;;3.90;2.70;;;20.10;63.70;;;;;;5073085;28;20029;-85
2022/10/02 01:35:25;;;;;;;5.25;2.70;;;19.90;63.90;;;;;;5055897;28;20093;-81
2022/10/02 01:37:52;;;;;;;3.83;2.60;;;20.00;64.00;;;;;;5073546;28;20028;-82
2022/10/02 01:40:25;;;;;;;4.32;2.75;;;20.00;63.70;;;;;;5072351;28;20478;-84
2022/10/02 01:42:52;;;;;;;7.35;2.83;;;20.00;64.10;;;;;;5055710;28;20395;-86
2022/10/02 01:45:27;;;;;;;4.05;2.50;;;20.20;63.60;;;;;;5055963;28;20491;-87
2022/10/02 01:48:22;;;;;;;6.05;2.97;;;20.30;63.50;;;;;;5055384;28;20040;-83
2022/10/02 01:51:04;;;;;;;4.32;2.90;;;20.40;63.20;;;;;;5077185;28;20020;-81
2022/10/02 01:54:08;;;;;;;4.18;2.83;;;20.50;63.50;;;;;;5059446;28;20063;-81
2022/10/02 01:56:50;;;;;;;5.10;2.80;;;20.10;63.60;;;;;;5056126;28;20040;-82
2022/10/02 01:59:44;;;;;;;5.63;2.72;;;20.20;63.70;;;;;;5039201;28;20036;-81
2022/10/02 02:02:33;;;;;;;5.65;2.85;;;20.20;63.70;;;;;;5057089;28;20052;-82
2022/10/02 02:05:04;;;;;;;3.88;2.65;;;20.10;64.20;;;;;;5049353;28;20052;-83
2022/10/02 02:07:45;;;;;;;7.15;3.10;;;20.30;64.50;;;;;;5076597;28;20041;-82
2022/10/02 02:10:22;;;;;;;7.95;3.00;;;20.60;63.10;;;;;;5075939;28;20031;-81
2022/10/02 02:12:57;;;;;;;4.82;2.97;;;20.50;63.40;;;;;;5059314;28;20372;-86
2022/10/02 02:15:35;;;;;;;5.50;2.85;;;20.30;63.20;;;;;;5059092;28;20021;-82
2022/10/02 02:18:17;;;;;;;5.25;3.00;;;20.20;64.00;;;;;;5039142;28;20035;-85
2022/10/02 02:20:50;;;;;;;4.78;3.28;;;20.40;63.80;;;;;;5056582;28;20020;-83
2022/10/02 02:23:31;;;;;;;6.10;3.20;;;20.50;63.40;;;;;;5059362;28;20112;-89
2022/10/02 02:26:11;;;;;;;4.80;3.28;;;20.40;63.50;;;;;;5058834;28;20516;-87
2022/10/02 02:28:42;;;;;;;5.20;3.17;;;20.40;63.70;;;;;;5058418;28;20025;-81
2022/10/02 02:31:18;;;;;;;5.57;3.35;;;20.20;63.90;;;;;;5059508;28;20115;-83
2022/10/02 02:33:50;;;;;;;6.45;3.30;;;20.30;63.90;;;;;;5059022;28;20222;-81
2022/10/02 02:36:20;;;;;;;5.82;3.50;;;20.40;63.50;;;;;;5058470;28;20044;-92
2022/10/02 02:38:57;;;;;;;4.40;3.30;;;20.50;63.20;;;;;;5076601;28;20436;-92
2022/10/02 02:41:31;;;;;;;6.60;3.53;;;20.30;63.90;;;;;;5058602;28;20412;-87
2022/10/02 02:44:00;;;;;;;4.97;3.33;;;20.10;64.30;;;;;;5058575;28;20038;-86
2022/10/02 02:47:05;;;;;;;4.72;3.55;;;19.80;64.70;;;;;;5057995;28;20086;-81
2022/10/02 02:49:50;;;;;;;5.40;3.35;;;19.70;65.70;;;;;;5058364;28;20025;-87
2022/10/02 02:52:20;;;;;;;4.55;3.45;;;20.00;64.50;;;;;;5058891;28;20035;-83
2022/10/02 02:55:08;;;;;;;4.75;3.03;;;19.90;64.40;;;;;;5058677;28;20028;-88
2022/10/02 02:58:01;;;;;;;4.40;3.22;;;19.70;64.90;;;;;;5058629;28;20125;-83
2022/10/02 03:00:26;;;;;;;7.43;3.50;;;19.60;65.70;;;;;;5057848;28;20020;-82
2022/10/02 03:02:54;;;;;;;4.65;3.00;;;19.70;65.50;;;;;;5058508;28;20031;-86
2022/10/02 03:05:21;;;;;;;4.45;3.25;;;19.80;64.70;;;;;;5057927;28;20032;-84
2022/10/02 03:07:55;;;;;;;4.22;2.95;;;19.60;65.10;;;;;;5057931;28;20419;-88
2022/10/02 03:10:33;;;;;;;5.60;2.95;;;19.60;65.20;;;;;;5058561;28;20024;-82
2022/10/02 03:13:26;;;;;;;5.05;3.00;;;19.80;65.10;;;;;;5058398;28;20073;-83
2022/10/02 03:16:30;;;;;;;4.88;3.00;;;19.90;64.70;;;;;;5056513;28;20024;-85
2022/10/02 03:19:21;;;;;;;4.90;3.10;;;19.90;64.90;;;;;;5055090;28;20044;-87
2022/10/02 03:22:04;;;;;;;4.10;2.92;;;20.10;64.20;;;;;;5042250;28;20024;-89
2022/10/02 03:24:34;;;;;;;5.43;3.03;;;20.10;64.60;;;;;;5056671;28;20036;-84
2022/10/02 03:27:44;;;;;;;3.83;2.90;;;20.10;64.20;;;;;;5051343;28;20053;-84
2022/10/02 03:30:14;;;;;;;4.72;3.08;;;20.10;64.80;;;;;;4972764;28;20035;-92
2022/10/02 03:32:44;;;;;;;4.72;3.00;;;20.00;65.00;;;;;;4951404;28;20047;-81
2022/10/02 03:35:11;;;;;;;5.35;2.88;;;19.80;65.00;;;;;;4948260;28;20418;-82
2022/10/02 03:37:41;;;;;;;5.45;3.10;;;19.80;65.00;;;;;;4954562;28;20027;-82
2022/10/02 03:40:07;;;;;;;4.13;3.00;;;19.90;65.00;;;;;;4959206;28;20030;-84
2022/10/02 03:42:35;;;;;;;5.30;2.90;;;19.70;65.80;;;;;;4948789;28;20039;-83
2022/10/02 03:45:00;;;;;;;5.00;2.67;;;19.70;65.30;;;;;;4958097;28;20054;-86
2022/10/02 03:47:26;;;;;;;5.18;3.00;;;19.70;65.30;;;;;;4959351;28;20039;-86
2022/10/02 03:49:52;;;;;;;3.78;2.60;;;19.60;66.10;;;;;;4958121;28;20023;-88
2022/10/02 03:52:20;;;;;;;6.88;2.80;;;19.60;65.80;;;;;;4974593;28;20031;-90
2022/10/02 03:54:50;;;;;;;5.07;2.83;;;19.40;65.90;;;;;;4959292;28;20062;-89
2022/10/02 03:57:22;;;;;;;4.93;2.53;;;19.50;66.00;;;;;;4959405;28;20027;-88
2022/10/02 04:00:05;;;;;;;17.88;16.48;;;19.60;65.50;;;;;;4959239;28;20030;-86
2022/10/02 04:02:47;;;;;;;4.28;2.45;;;19.80;65.40;;;;;;4958692;28;20023;-89
2022/10/02 04:05:22;;;;;;;3.70;2.60;;;19.80;64.90;;;;;;4976579;28;20037;-91
2022/10/02 04:07:52;;;;;;;5.97;2.63;;;20.00;64.60;;;;;;5044787;28;20039;-90
2022/10/02 04:10:35;;;;;;;4.95;2.67;;;19.70;65.00;;;;;;5033540;28;20472;-86
2022/10/02 04:13:09;;;;;;;4.75;2.40;;;19.70;65.10;;;;;;5049934;28;20029;-82
2022/10/02 04:15:56;;;;;;;3.20;2.28;;;19.50;65.80;;;;;;5053708;28;20108;-80
2022/10/02 04:18:48;;;;;;;3.63;2.42;;;19.50;65.90;;;;;;5053102;28;20028;-91
2022/10/02 04:21:41;;;;;;;3.42;2.28;;;19.70;65.20;;;;;;5045585;28;20175;-82
2022/10/02 04:24:15;;;;;;;4.85;2.55;;;19.80;65.30;;;;;;5045819;28;20029;-83
2022/10/02 04:26:46;;;;;;;6.47;2.55;;;19.80;64.50;;;;;;5046312;28;20527;-83
2022/10/02 04:29:17;;;;;;;;;;;19.90;64.80;;;;;;5055199;28;20025;-91
2022/10/02 04:31:49;;;;;;;4.47;2.42;;;20.10;63.70;;;;;;5053757;28;19908;-84
2022/10/02 04:34:15;;;;;;;3.75;2.33;;;20.20;63.70;;;;;;5050017;28;20121;-82
2022/10/02 04:37:00;;;;;;;4.32;2.45;;;20.50;63.20;;;;;;5049656;28;20096;-83
2022/10/02 04:39:36;;;;;;;3.63;2.47;;;20.60;63.00;;;;;;5052650;28;20473;-87
2022/10/02 04:42:19;;;;;;;3.60;2.30;;;20.30;63.40;;;;;;5037547;28;20100;-84
2022/10/02 04:44:51;;;;;;;4.53;2.40;;;20.20;63.30;;;;;;5032596;28;20021;-85
2022/10/02 04:47:58;;;;;;;3.30;2.13;;;20.10;63.20;;;;;;5032778;28;20037;-82
2022/10/02 04:50:24;;;;;;;4.03;2.40;;;20.30;63.10;;;;;;4981206;28;20031;-81
2022/10/02 04:53:24;;;;;;;5.15;2.60;;;20.50;62.90;;;;;;4992084;28;20484;-81
2022/10/02 04:56:16;;;;;;;4.03;2.50;;;20.50;62.80;;;;;;4899808;29;20521;-81
2022/10/02 04:58:50;;;;;;;5.15;2.40;;;20.60;62.90;;;;;;4899557;29;20075;-84
2022/10/02 05:01:19;;;;;;;5.88;2.38;;;20.80;62.40;;;;;;4915545;29;20488;-83
2022/10/02 05:04:17;;;;;;;6.35;2.80;;;21.00;61.70;;;;;;4915485;29;20028;-80
2022/10/02 05:07:16;;;;;;;5.43;2.42;;;20.90;61.60;;;;;;4908660;29;20055;-84
2022/10/02 05:10:00;;;;;;;4.07;2.40;;;20.90;61.70;;;;;;4915461;29;20443;-86
2022/10/02 05:12:45;;;;;;;3.63;2.33;;;20.60;62.00;;;;;;4899068;29;20047;-86
2022/10/02 05:15:22;;;;;;;3.97;2.30;;;20.70;62.00;;;;;;4905052;29;20036;-85
2022/10/02 05:18:17;;;;;;;4.13;2.55;;;20.20;62.60;;;;;;4898959;29;20554;-85
2022/10/02 05:21:04;;;;;;;4.28;2.40;;;20.30;62.90;;;;;;4909497;29;20041;-85
2022/10/02 05:24:00;;;;;;;3.67;2.30;;;20.50;62.40;;;;;;4913123;29;20021;-85
2022/10/02 05:26:56;;;;;;;3.13;2.20;;;20.60;62.00;;;;;;4900181;29;20040;-86
2022/10/02 05:29:48;;;;;;;4.45;2.40;;;20.50;62.10;;;;;;4948491;29;20024;-85
2022/10/02 05:32:26;;;;;;;4.05;2.70;;;20.50;62.30;;;;;;5000096;28;20042;-94
2022/10/02 05:35:06;;;;;;;4.32;2.50;;;20.40;62.70;;;;;;4979668;28;20027;-93
2022/10/02 05:38:08;;;;;;;3.65;2.15;;;20.40;62.60;;;;;;4986578;28;20042;-89
2022/10/02 05:41:10;;;;;;;4.72;2.60;;;20.40;62.70;;;;;;4994291;28;20030;-89
2022/10/02 05:44:09;;;;;;;4.60;2.30;;;20.30;62.50;;;;;;5006226;28;20558;-86
2022/10/02 05:46:46;;;;;;;5.00;2.40;;;20.00;62.90;;;;;;4999599;28;20059;-88
2022/10/02 05:49:13;;;;;;;4.18;2.08;;;19.90;63.00;;;;;;4991590;28;20032;-86
2022/10/02 05:52:01;;;;;;;5.07;2.38;;;20.00;63.70;;;;;;4976324;28;20505;-91
2022/10/02 05:54:52;;;;;;;3.42;1.98;;;20.20;62.90;;;;;;4976762;28;20030;-84
2022/10/02 05:57:40;;;;;;;4.30;2.38;;;20.10;63.10;;;;;;4996577;28;20120;-93
2022/10/02 06:00:18;;;;;;;3.63;2.10;;;20.00;63.30;;;;;;5032349;28;20026;-88
2022/10/02 06:03:04;;;;;;;3.70;2.25;;;19.90;63.40;;;;;;5031984;28;20053;-84
2022/10/02 06:05:32;;;;;;;4.70;2.35;;;19.80;64.00;;;;;;5032432;28;20033;-87
2022/10/02 06:08:08;;;;;;;3.83;2.08;;;19.80;63.60;;;;;;5032070;28;20459;-89
2022/10/02 06:10:41;;;;;;;3.35;2.00;;;19.70;63.70;;;;;;5029380;28;20026;-86
2022/10/02 06:13:13;;;;;;;3.65;2.00;;;19.70;63.90;;;;;;5031830;28;20075;-88
2022/10/02 06:16:00;;;;;;;4.68;2.20;;;19.70;63.70;;;;;;5027113;28;20022;-86
2022/10/02 06:18:32;;;;;;;3.28;1.90;;;20.00;63.60;;;;;;5031573;28;20053;-92
2022/10/02 06:21:12;;;;;;;3.42;1.88;;;20.10;62.90;;;;;;5032674;28;20411;-86
2022/10/02 06:23:42;;;;;;;4.40;2.20;;;20.20;63.10;;;;;;5032995;28;20029;-86
2022/10/02 06:26:42;;;;;;;3.28;1.90;;;20.10;62.80;;;;;;5036056;28;20096;-91
2022/10/02 06:29:23;;;;;;;3.45;2.53;;;20.10;63.00;;;;;;5059188;28;20026;-92
2022/10/02 06:32:04;;;;;;;4.30;2.08;;;20.00;63.30;;;;;;5038952;28;20029;-92
2022/10/02 06:34:30;;;;;;;3.78;1.98;;;20.30;62.90;;;;;;5047234;28;20029;-90
2022/10/02 06:37:27;;;;;;;3.85;2.10;;;20.30;62.90;;;;;;5048586;28;20029;-89
2022/10/02 06:39:52;;;;;;;4.75;2.10;;;20.00;63.30;;;;;;5073176;28;20040;-85
2022/10/02 06:42:27;;;;;;;3.60;1.90;;;20.20;63.10;;;;;;5042661;28;20031;-83
2022/10/02 06:45:18;;;;;;;5.28;2.10;;;20.30;62.70;;;;;;5038910;28;20029;-88
2022/10/02 06:47:56;;;;;;;4.65;2.20;;;20.30;63.20;;;;;;5054558;28;20033;-87
2022/10/02 06:50:41;;;;;;;5.22;2.03;;;20.50;63.10;;;;;;5044846;28;20017;-90
2022/10/02 06:53:29;;;;;;;6.15;2.35;;;20.70;62.30;;;;;;5074996;28;20037;-86
2022/10/02 06:55:58;;;;;;;4.90;1.95;;;20.50;62.10;;;;;;5058682;28;20119;-86
2022/10/02 06:58:44;;;;;;;4.97;2.05;;;20.60;62.80;;;;;;5059243;28;20032;-85
2022/10/02 07:01:41;;;;;;;4.50;2.00;;;20.90;62.00;;;;;;5072380;28;20024;-92
2022/10/02 07:04:19;;;;;;;3.38;1.88;;;21.10;61.40;;;;;;5043174;28;20021;-86
2022/10/02 07:07:28;;;;;;;4.82;1.92;;;21.00;60.80;;;;;;5057652;28;20029;-82
2022/10/02 07:10:14;;;;;;;4.90;2.10;;;20.90;61.70;;;;;;5034026;28;20033;-86
2022/10/02 07:12:39;;;;;;;4.95;1.98;;;20.90;61.40;;;;;;5013439;28;20060;-86
2022/10/02 07:15:24;;;;;;;3.63;1.90;;;21.10;62.10;;;;;;5025953;28;20028;-87
2022/10/02 07:18:09;;;;;;;3.58;1.70;;;20.90;62.00;;;;;;5017690;28;20131;-91
2022/10/02 07:20:48;;;;;;;5.80;2.25;;;20.80;61.80;;;;;;5017177;28;20416;-89
2022/10/02 07:23:24;;;;;;;4.22;2.05;;;20.90;61.90;;;;;;5034174;28;20176;-82
2022/10/02 07:26:29;;;;;;;6.32;2.55;;;21.10;62.10;;;;;;5028750;28;20026;-89
2022/10/02 07:29:18;;;;;;;3.92;1.85;;;21.20;60.90;;;;;;5017023;28;20052;-82
2022/10/02 07:32:10;;;;;;;3.95;2.00;;;21.40;61.60;;;;;;5017528;28;20033;-86
2022/10/02 07:35:08;;;;;;;4.70;2.08;;;21.40;60.70;;;;;;5014530;28;20384;-84
2022/10/02 07:38:20;;;;;;;4.00;1.98;;;21.20;61.30;;;;;;5028773;28;20041;-83
2022/10/02 07:41:22;;;;;;;3.88;2.10;;;21.30;61.40;;;;;;5003181;28;20473;-92
2022/10/02 07:44:01;;;;;;;3.88;2.10;;;21.40;61.40;;;;;;5015753;28;20120;-87
2022/10/02 07:47:20;;;;;;;6.18;2.20;;;21.80;61.10;;;;;;4997303;28;20516;-86
2022/10/02 07:49:55;;;;;;;4.53;1.80;;;22.20;60.00;;;;;;4990338;28;20026;-84
2022/10/02 07:52:55;;;;;;;5.13;2.00;;;22.60;59.90;;;;;;4991545;28;20038;-85
2022/10/02 07:55:22;;;;;;;;;;;22.80;59.40;;;;;;4976614;28;20030;-83
2022/10/02 07:58:11;;;;;;;7.75;2.03;;;23.00;59.70;;;;;;4976826;28;19910;-85
2022/10/02 08:01:02;;;;;;;4.50;1.83;;;23.10;59.70;;;;;;4983083;28;20026;-86
2022/10/02 08:03:41;;;;;;;7.00;2.00;;;23.30;59.10;;;;;;4979477;28;20121;-88
2022/10/02 08:06:27;;;;;;;4.55;1.90;;;23.10;57.90;;;;;;4992544;28;20048;-85
2022/10/02 08:08:54;;;;;;;3.78;1.75;;;22.80;59.40;;;;;;4962330;28;20035;-81
2022/10/02 08:11:33;;;;;;;3.22;1.90;;;22.80;59.60;;;;;;4987799;28;20038;-84
2022/10/02 08:14:11;;;;;;;3.83;1.85;;;23.00;59.00;;;;;;4993231;28;20054;-90
2022/10/02 08:16:59;;;;;;;3.88;1.90;;;23.20;58.30;;;;;;4996627;28;20034;-90
2022/10/02 08:19:44;;;;;;;4.00;1.60;;;23.40;58.30;;;;;;5013106;28;20130;-85
2022/10/02 08:22:22;;;;;;;5.60;2.08;;;23.40;58.10;;;;;;4996461;28;20037;-86
2022/10/02 08:24:56;;;;;;;4.53;1.90;;;23.20;58.00;;;;;;5053651;28;20040;-84
2022/10/02 08:27:54;;;;;;;5.03;1.85;;;23.20;57.50;;;;;;5055856;28;20040;-88
2022/10/02 08:30:20;;;;;;;5.28;2.00;;;23.60;57.80;;;;;;5056066;28;20021;-81
2022/10/02 08:32:46;;;;;;;5.93;1.90;;;23.70;57.40;;;;;;5056090;28;20395;-86
2022/10/02 08:35:18;;;;;;;4.50;1.70;;;23.70;57.20;;;;;;5055990;28;20463;-81
2022/10/02 08:37:56;;;;;;;5.95;1.88;;;23.40;57.50;;;;;;5056090;28;20055;-90
2022/10/02 08:40:43;;;;;;;5.68;1.98;;;22.70;57.60;;;;;;5074393;28;20025;-91
2022/10/02 08:43:37;;;;;;;6.88;2.03;;;22.30;57.70;;;;;;5054789;28;20025;-85
2022/10/02 08:46:24;;;;;;;8.05;1.90;;;22.20;58.20;;;;;;5056866;28;20025;-88
2022/10/02 08:48:57;;;;;;;4.28;1.70;;;22.00;58.90;;;;;;5056049;28;20373;-85
2022/10/02 08:52:08;;;;;;;5.10;1.90;;;22.00;59.40;;;;;;5048047;28;20356;-86
2022/10/02 08:54:49;;;;;;;3.40;1.63;;;22.20;59.50;;;;;;4954660;29;20081;-87
2022/10/02 08:57:36;;;;;;;3.13;1.70;;;22.50;58.00;;;;;;4938450;28;20084;-87
2022/10/02 09:00:16;;;;;;;16.27;14.90;;;22.80;57.90;;;;;;4938925;29;20493;-89
2022/10/02 09:03:18;;;;;;;4.38;1.70;;;22.90;57.40;;;;;;4954596;28;20041;-81
2022/10/02 09:06:01;;;;;;;6.55;1.83;;;22.90;57.70;;;;;;4953420;29;20039;-83
2022/10/02 09:08:36;;;;;;;4.50;1.88;;;23.20;57.60;;;;;;4953896;29;20438;-85
2022/10/02 09:11:01;;;;;;;4.22;1.80;;;23.50;56.90;;;;;;4954000;29;20035;-85
2022/10/02 09:13:48;;;;;;;4.00;1.65;;;23.70;56.70;;;;;;4953470;29;20507;-85
2022/10/02 09:16:27;;;;;;;4.15;2.10;;;24.10;56.60;;;;;;4953471;29;20474;-80
2022/10/02 09:19:30;;;;;;;4.55;1.70;;;24.20;56.00;;;;;;4937996;29;20027;-83
2022/10/02 09:22:09;;;;;;;3.90;1.80;;;24.60;55.60;;;;;;4981391;28;20545;-86
2022/10/02 09:25:12;;;;;;;5.70;1.70;;;24.60;55.70;;;;;;4979834;28;20047;-87
2022/10/02 09:27:57;;;;;;;8.18;2.05;;;24.10;54.80;;;;;;4972954;28;20523;-86
2022/10/02 09:30:46;;;;;;;4.18;2.45;;;23.30;55.70;;;;;;5028011;28;20455;-82
2022/10/02 09:33:50;;;;;;;4.97;1.70;;;22.90;57.20;;;;;;5035371;28;20112;-86
2022/10/02 09:36:17;;;;;;;4.70;1.83;;;23.30;57.60;;;;;;5036156;28;20388;-88
2022/10/02 09:39:06;;;;;;;4.00;1.65;;;23.30;56.30;;;;;;5043596;28;20209;-87
2022/10/02 09:41:32;;;;;;;4.35;1.60;;;23.50;55.80;;;;;;5055945;28;20391;-84
2022/10/02 09:44:36;;;;;;;7.07;2.40;;;23.50;55.80;;;;;;5055557;28;20028;-85
2022/10/02 09:47:11;;;;;;;7.60;1.90;;;23.90;56.10;;;;;;5056123;28;20032;-84
2022/10/02 09:49:45;;;;;;;6.30;2.50;;;23.60;55.10;;;;;;5055792;28;20029;-87
2022/10/02 09:52:20;;;;;;;9.13;2.22;;;23.30;55.90;;;;;;5056478;28;20463;-87
2022/10/02 09:55:24;;;;;;;12.73;3.55;;;23.40;55.80;;;;;;5055835;28;20081;-84
2022/10/02 09:58:24;;;;;;;7.65;2.00;;;23.80;55.90;;;;;;5064286;28;20489;-83
2022/10/02 10:01:23;;;;;;;8.37;2.70;;;23.80;55.70;;;;;;5051591;28;20024;-83
2022/10/02 10:03:56;;;;;;;8.07;2.83;;;23.90;56.50;;;;;;5046491;28;20017;-81
2022/10/02 10:06:21;;;;;;;11.88;4.65;;;24.10;55.20;;;;;;5056300;28;20025;-87
2022/10/02 10:09:12;;;;;;;4.78;2.22;;;24.00;55.20;;;;;;5056085;28;20478;-90
2022/10/02 10:11:54;;;;;;;9.63;3.42;;;23.90;52.90;;;;;;5058138;28;20032;-86
2022/10/02 10:14:38;;;;;;;8.95;4.60;;;23.60;54.90;;;;;;5038933;28;20036;-81
2022/10/02 10:17:24;;;;;;;12.98;6.30;;;24.00;55.20;;;;;;5058864;28;20029;-92
2022/10/02 10:20:16;;;;;;;27.50;9.00;;;24.20;55.40;;;;;;5059073;28;20054;-84
2022/10/02 10:23:30;;;;;;;8.13;2.30;;;24.10;55.60;;;;;;5059094;28;20495;-85
2022/10/02 10:26:13;;;;;;;18.27;8.10;;;23.90;56.00;;;;;;4958972;28;20484;-86
2022/10/02 10:28:45;;;;;;;14.15;5.78;;;23.80;55.60;;;;;;4959885;28;20043;-85
2022/10/02 10:31:28;;;;;;;11.93;3.35;;;23.90;55.70;;;;;;4975939;28;20035;-83
2022/10/02 10:34:08;;;;;;;6.65;2.75;;;23.80;56.10;;;;;;4959265;28;20034;-89
2022/10/02 10:39:43;;;;;;;4.72;2.45;;;23.70;55.50;;;;;;4969109;28;20026;-84
2022/10/02 10:42:46;;;;;;;5.13;1.80;;;23.70;55.70;;;;;;4959245;28;20050;-83
2022/10/02 10:45:40;;;;;;;7.47;2.47;;;23.80;55.40;;;;;;4974101;28;20117;-84
2022/10/02 10:48:31;;;;;;;5.20;2.30;;;23.80;55.60;;;;;;4901558;29;20076;-85
2022/10/02 10:51:03;;;;;;;7.40;1.80;;;23.80;54.80;;;;;;4885810;29;20523;-84
2022/10/02 10:53:43;;;;;;;6.90;2.10;;;23.60;55.60;;;;;;4917437;29;20051;-85
2022/10/02 10:56:18;;;;;;;6.00;2.13;;;23.70;56.10;;;;;;4935926;28;20062;-86
2022/10/02 10:58:51;;;;;;;6.40;1.80;;;23.60;55.90;;;;;;4958861;28;20498;-83
2022/10/02 11:01:22;;;;;;;4.57;1.88;;;23.50;56.10;;;;;;4959066;28;20031;-86
2022/10/02 11:04:12;;;;;;;5.82;2.33;;;23.50;56.00;;;;;;4614252;28;9999777;-86
2022/10/02 11:06:53;;;;;;;5.07;2.00;;;23.60;56.70;;;;;;4957285;28;20038;-88
2022/10/02 11:09:21;;;;;;;;;;;23.80;56.20;;;;;;4955170;29;20422;-85
2022/10/02 11:12:11;;;;;;;6.93;2.17;;;23.80;55.10;;;;;;4954848;29;19975;-91
2022/10/02 11:15:28;;;;;;;5.97;2.15;;;23.80;56.00;;;;;;4963266;28;20110;-91
2022/10/02 11:18:05;;;;;;;5.20;2.20;;;23.70;55.80;;;;;;4933472;28;20051;-82
2022/10/02 11:21:11;;;;;;;4.22;1.65;;;23.60;56.00;;;;;;4918447;29;20067;-83
2022/10/02 11:24:12;;;;;;;4.47;2.20;;;23.20;56.10;;;;;;4934353;29;20490;-84
2022/10/02 11:26:43;;;;;;;11.70;5.72;;;23.00;57.30;;;;;;4939471;29;20048;-85
2022/10/02 11:29:14;;;;;;;8.40;3.60;;;23.00;57.70;;;;;;4954412;28;20038;-91
2022/10/02 11:32:13;;;;;;;8.65;4.50;;;23.00;57.40;;;;;;4953765;28;20042;-83
2022/10/02 11:35:07;;;;;;;6.30;2.30;;;22.90;57.40;;;;;;4937672;28;20079;-83
2022/10/02 11:37:55;;;;;;;5.03;2.15;;;22.90;57.40;;;;;;4943931;29;20482;-85
2022/10/02 11:40:51;;;;;;;7.07;2.35;;;23.00;57.50;;;;;;4951299;28;20043;-89
2022/10/02 11:43:27;;;;;;;7.57;2.10;;;22.90;57.40;;;;;;4961395;28;20487;-83
2022/10/02 11:45:55;;;;;;;4.50;2.03;;;22.40;57.60;;;;;;4950327;28;20430;-80
2022/10/02 11:48:49;;;;;;;6.60;2.28;;;22.40;58.30;;;;;;4943248;28;20038;-84
2022/10/02 11:51:36;;;;;;;5.68;2.05;;;22.20;58.60;;;;;;4957514;28;20391;-87
2022/10/02 11:54:32;;;;;;;4.22;1.95;;;22.40;58.30;;;;;;5013515;28;20036;-83
2022/10/02 11:57:20;;;;;;;5.82;2.30;;;22.60;58.10;;;;;;5032802;28;20133;-80
2022/10/02 12:00:07;;;;;;;5.47;2.45;;;22.60;58.40;;;;;;5054383;28;20051;-84
2022/10/02 12:03:01;;;;;;;6.18;2.38;;;22.60;58.00;;;;;;5053879;28;20116;-83
2022/10/02 12:05:56;;;;;;;4.20;2.00;;;22.70;58.00;;;;;;5054931;28;20036;-85
2022/10/02 12:08:49;;;;;;;5.32;2.00;;;22.90;58.90;;;;;;5036414;28;20044;-82
2022/10/02 12:11:34;;;;;;;3.53;2.00;;;22.90;57.60;;;;;;5044419;28;20044;-85
2022/10/02 12:14:28;;;;;;;5.65;2.38;;;23.10;58.20;;;;;;5043265;28;20024;-84
2022/10/02 12:17:29;;;;;;;4.60;1.83;;;23.30;57.20;;;;;;5036615;28;20123;-86
2022/10/02 12:29:39;;;;;;;4.82;2.00;;;23.30;57.70;;;;;;5068337;28;20095;-82
2022/10/02 12:32:37;;;;;;;5.95;2.08;;;23.70;57.40;;;;;;5067065;28;20059;-82
2022/10/02 12:35:21;;;;;;;4.88;2.55;;;23.80;56.40;;;;;;5087176;28;20356;-84
2022/10/02 12:38:22;;;;;;;4.65;2.60;;;23.90;56.50;;;;;;5045029;28;20021;-85
2022/10/02 12:41:16;;;;;;;9.50;5.57;;;24.20;56.50;;;;;;5034917;28;20040;-86
2022/10/02 12:43:56;;;;;;;6.47;2.75;;;24.20;55.80;;;;;;5034899;28;20111;-89
2022/10/02 12:46:28;;;;;;;;;;;24.10;55.80;;;;;;5046230;28;20383;-82
2022/10/02 12:49:06;;;;;;;6.35;3.03;;;24.10;55.70;;;;;;5047179;28;20463;-84
2022/10/02 12:51:45;;;;;;;3.88;2.30;;;24.20;55.90;;;;;;5040444;28;20460;-83
2022/10/02 12:54:39;;;;;;;5.32;2.40;;;24.20;56.80;;;;;;5041529;28;20021;-88
2022/10/02 13:00:56;;;;;;;3.90;2.10;;;23.60;55.50;;;;;;5054546;28;20174;-89
2022/10/02 13:03:54;;;;;;;3.58;2.00;;;23.00;57.10;;;;;;5046965;28;20476;-91
2022/10/02 13:06:48;;;;;;;6.90;1.90;;;22.60;57.40;;;;;;4990705;28;20030;-82
2022/10/02 13:09:23;;;;;;;6.65;2.10;;;22.40;58.30;;;;;;4911859;29;20507;-90
2022/10/02 13:11:51;;;;;;;5.97;2.30;;;22.40;58.00;;;;;;4887843;29;20044;-84
2022/10/02 13:14:33;;;;;;;6.25;2.05;;;22.60;58.30;;;;;;4897186;29;20040;-89
2022/10/02 13:17:07;;;;;;;4.70;2.10;;;22.70;58.30;;;;;;4910191;29;20040;-86
2022/10/02 13:20:03;;;;;;;7.05;2.38;;;23.00;57.80;;;;;;4900144;29;20047;-83
2022/10/02 13:22:46;;;;;;;4.13;2.00;;;23.20;56.90;;;;;;4898941;29;20028;-84
2022/10/02 13:25:23;;;;;;;4.72;2.13;;;23.00;58.00;;;;;;4880126;29;20032;-84
2022/10/02 13:28:03;;;;;;;5.72;2.00;;;23.20;57.90;;;;;;4881017;29;20104;-87
2022/10/02 13:30:41;;;;;;;4.88;1.95;;;23.40;57.90;;;;;;4913985;29;20400;-83
2022/10/02 13:33:26;;;;;;;5.78;2.33;;;23.40;58.30;;;;;;4914728;29;20040;-86
2022/10/02 13:36:15;;;;;;;5.85;2.20;;;23.20;58.70;;;;;;4900995;29;20048;-85
2022/10/02 13:38:46;;;;;;;5.55;2.00;;;22.90;59.30;;;;;;4893920;29;20045;-81
2022/10/02 13:41:12;;;;;;;4.72;2.13;;;23.10;59.80;;;;;;4894665;29;20028;-86
2022/10/02 13:44:11;;;;;;;5.22;1.80;;;23.30;58.90;;;;;;4923621;29;20047;-82
2022/10/02 13:46:56;;;;;;;3.97;2.00;;;23.50;59.40;;;;;;5031444;28;20060;-88
2022/10/02 13:49:57;;;;;;;4.05;1.80;;;23.40;59.30;;;;;;5039134;28;20104;-82
2022/10/02 13:52:29;;;;;;;4.95;2.45;;;23.30;59.20;;;;;;5039683;28;20043;-86
2022/10/02 13:55:13;;;;;;;4.57;1.90;;;23.20;59.30;;;;;;5042575;28;20056;-83
2022/10/02 13:57:56;;;;;;;6.68;2.20;;;23.20;59.80;;;;;;5046626;28;20472;-84
2022/10/02 14:00:37;;;;;;;4.05;1.92;;;23.40;59.40;;;;;;5038732;28;20047;-82
2022/10/02 14:03:32;;;;;;;7.25;2.22;;;23.60;58.80;;;;;;5047464;28;20025;-82
2022/10/02 14:06:11;;;;;;;4.45;2.10;;;23.40;59.70;;;;;;5038011;28;20476;-85
2022/10/02 14:09:01;;;;;;;4.25;2.05;;;23.40;59.10;;;;;;5037195;28;20029;-89
2022/10/02 14:11:49;;;;;;;5.80;2.60;;;23.50;59.30;;;;;;5051270;28;20068;-86
2022/10/02 14:14:55;;;;;;;5.47;2.00;;;23.00;59.30;;;;;;5056341;28;20414;-88
2022/10/02 14:17:36;;;;;;;4.80;2.15;;;22.80;60.10;;;;;;5048171;28;20081;-86
2022/10/02 14:20:04;;;;;;;;;;;23.00;60.00;;;;;;5060905;28;20025;-84
2022/10/02 14:22:39;;;;;;;4.82;2.10;;;23.00;60.40;;;;;;5073701;28;19905;-82